Time;durP1;ratioP1;P1;durP2;ratioP2;P2;SDS_P1;SDS_P2;PMS_P1;PMS_P2;Temp;Humidity;BMP_temperature;BMP_pressure;BME280_temperature;BME280_humidity;BME280_pressure;Samples;Min_cycle;Max_cycle;Signal;HPM_P1;HPM_P2
2019/11/25 07:42:38;;;;;;;-1.701412E+38;-2.262441E-39;;;;;;;;;;;;;
2019/11/25 14:45:03;;;;;;;62.2;51.8;;;;;;;23.26;37.16309;980.0963;;;;
2019/11/25 14:47:48;;;;;;;65.9;57.8;;;;;;;18.35;50.4375;980.2466;;;;
2019/11/25 14:50:13;;;;;;;133.3;77.9;;;;;;;15.12;51.44043;980.3145;;;;
2019/11/25 14:52:38;;;;;;;130.1;77.7;;;;;;;19.87;40.45117;980.2101;;;;
2019/11/25 14:55:05;;;;;;;126.4;76.2;;;;;;;20.84;37.56445;980.1467;;;;
2019/11/25 14:57:30;;;;;;;117.1;80.4;;;;;;;13.92;52.34473;980.3831;;;;
2019/11/25 14:59:57;;;;;;;93.8;65.6;;;;;;;18.69;44.1709;980.202;;;;
2019/11/25 15:02:22;;;;;;;97.9;66.3;;;;;;;20.9;39.03613;980.0914;;;;
2019/11/25 15:07:14;;;;;;;91.9;64.1;;;;;;;22.22;36.94043;980.008;;;;
2019/11/25 15:09:39;;;;;;;87.7;63.2;;;;;;;22.44;36.40723;980.0446;;;;
2019/11/25 15:12:05;;;;;;;85.8;62.7;;;;;;;22.58;37.24512;980.101;;;;
2019/11/25 15:14:30;;;;;;;85.1;60.9;;;;;;;22.68;36.28906;980.1184;;;;
2019/11/25 15:16:55;;;;;;;84.2;61.7;;;;;;;22.76;36.63477;980.1111;;;;
2019/11/25 15:19:20;;;;;;;123.9;79.9;;;;;;;13.02;54.04297;980.4993;;;;
2019/11/25 15:21:45;;;;;;;126.9;82.9;;;;;;;10.27;66.36523;980.6131;;;;
2019/11/25 15:24:10;;;;;;;135.6;83.9;;;;;;;9.58;69.87793;980.6544;;;;
2019/11/25 15:26:35;;;;;;;128.5;81.3;;;;;;;9.44;71.26074;980.6108;;;;
2019/11/25 15:29:01;;;;;;;76.4;55.2;;;;;;;18.37;53.15723;980.2144;;;;
2019/11/25 15:31:26;;;;;;;81;58.1;;;;;;;20.88;44.24219;980.1594;;;;
2019/11/25 15:33:51;;;;;;;80.2;57.3;;;;;;;21.7;42.50879;980.1552;;;;
2019/11/25 15:36:16;;;;;;;80.6;58.8;;;;;;;22.07;41.83496;980.2274;;;;
2019/11/25 15:38:41;;;;;;;84;58.6;;;;;;;22.27;41.1875;980.2478;;;;
2019/11/25 15:41:08;;;;;;;82.4;59.7;;;;;;;22.39;41.16797;980.2935;;;;
2019/11/25 15:43:33;;;;;;;85.8;75;;;;;;;22.63;41.07324;979.7436;;;;
2019/11/25 15:45:58;;;;;;;80;59.1;;;;;;;22.74;40.75488;979.913;;;;
2019/11/25 15:48:23;;;;;;;79.5;59.3;;;;;;;22.8;40.58008;979.9364;;;;
2019/11/25 15:50:59;;;;;;;78;58.5;;;;;;;22.79;40.62109;979.8942;;;;
2019/11/25 15:53:24;;;;;;;77.2;57.3;;;;;;;22.8;40.56934;979.9437;;;;
2019/11/25 15:55:49;;;;;;;77.8;56.8;;;;;;;22.83;40.49707;979.9691;;;;
2019/11/25 15:58:15;;;;;;;83.4;67.8;;;;;;;22.71;40.49902;979.8088;;;;
2019/11/25 16:00:50;;;;;;;79.8;58.4;;;;;;;22.86;40.45801;979.9937;;;;
2019/11/25 16:03:17;;;;;;;83.2;59.8;;;;;;;22.87;40.50195;979.9626;;;;
2019/11/25 16:55:03;;;;;;;70;57.2;;;;;;;22.55;41.08691;980.1167;;;;
2019/11/25 16:57:28;;;;;;;71.2;58.4;;;;;;;22.69;40.82324;980.1342;;;;
2019/11/25 16:59:53;;;;;;;72.1;58.5;;;;;;;22.76;40.65039;980.1021;;;;
2019/11/25 17:02:20;;;;;;;70.8;58.1;;;;;;;22.82;40.47559;980.1231;;;;
2019/11/25 17:04:45;;;;;;;71.6;57.9;;;;;;;22.85;40.4043;980.1944;;;;
2019/11/25 17:07:51;;;;;;;71;59.6;;;;;;;22.89;40.25977;980.1833;;;;
2019/11/25 17:12:03;;;;;;;70.4;59.2;;;;;;;22.94;40.18066;980.1469;;;;
2019/11/25 17:14:26;;;;;;;69.5;59.1;;;;;;;22.95;40.1377;980.1468;;;;
2019/11/25 17:16:51;;;;;;;71.1;59.9;;;;;;;22.96;40.13965;980.1981;;;;
2019/11/25 17:19:16;;;;;;;69.8;58.5;;;;;;;22.99;40.05664;980.2006;;;;
2019/11/25 17:21:42;;;;;;;70.1;57.7;;;;;;;22.98;40.12012;980.1859;;;;
2019/11/25 17:24:10;;;;;;;70.8;58.1;;;;;;;23;40.0791;980.1814;;;;
2019/11/25 17:26:35;;;;;;;71.3;58.5;;;;;;;23;40.03613;980.1948;;;;
2019/11/25 17:29:01;;;;;;;70.4;58.7;;;;;;;22.99;40.02539;980.1572;;;;
2019/11/25 17:31:26;;;;;;;71.3;58.8;;;;;;;23;40.02637;980.1699;;;;
2019/11/25 17:33:51;;;;;;;70.9;59.7;;;;;;;22.98;40.01367;980.1325;;;;
2019/11/25 17:36:19;;;;;;;71.6;60.7;;;;;;;23.01;39.98535;980.2481;;;;
2019/11/25 17:38:47;;;;;;;72.5;60.5;;;;;;;23.01;39.94238;980.2283;;;;
2019/11/25 17:41:13;;;;;;;71;60.6;;;;;;;23.02;39.93262;980.204;;;;
2019/11/25 17:43:51;;;;;;;70.8;58.5;;;;;;;23.01;39.86816;980.2592;;;;
2019/11/25 17:46:17;;;;;;;72.5;61.9;;;;;;;23;39.90918;980.3283;;;;
2019/11/25 17:48:42;;;;;;;70.8;59.9;;;;;;;23.03;39.88086;980.3544;;;;
2019/11/25 17:51:11;;;;;;;72.2;61.3;;;;;;;23.02;39.85938;980.3579;;;;
2019/11/25 17:53:36;;;;;;;75.3;65.3;;;;;;;23.23;39.53711;980.3497;;;;
2019/11/25 17:56:26;;;;;;;72.7;64.7;;;;;;;23.27;39.28711;980.2867;;;;
2019/11/25 17:58:37;;;;;;;70.9;62.5;;;;;;;23.32;39.29102;980.3959;;;;
2019/11/25 18:01:02;;;;;;;67.5;57.9;;;;;;;23.3;39.29004;980.3903;;;;
2019/11/25 18:03:32;;;;;;;71.8;63;;;;;;;23.24;39.30566;980.3193;;;;
2019/11/25 18:06:03;;;;;;;70.6;58.8;;;;;;;23.28;39.29883;980.3862;;;;
2019/11/25 18:08:32;;;;;;;72.6;64.8;;;;;;;23.29;39.30957;980.3892;;;;
2019/11/25 18:10:57;;;;;;;68.5;59;;;;;;;23.28;39.29883;980.407;;;;
2019/11/25 18:13:22;;;;;;;69.1;59.9;;;;;;;23.29;39.27832;980.4163;;;;
2019/11/25 18:15:47;;;;;;;69.5;59.6;;;;;;;23.3;39.2998;980.385;;;;
2019/11/25 18:18:15;;;;;;;68.3;59.5;;;;;;;23.29;39.24512;980.4161;;;;
2019/11/25 18:20:41;;;;;;;69.6;59.6;;;;;;;23.3;39.22559;980.4559;;;;
2019/11/25 18:23:06;;;;;;;70.3;60.8;;;;;;;23.3;39.20508;980.4233;;;;
2019/11/25 18:25:31;;;;;;;70.5;61.3;;;;;;;23.3;39.21582;980.3987;;;;
2019/11/25 18:27:56;;;;;;;68.6;59.8;;;;;;;23.3;39.20508;980.4189;;;;
2019/11/25 18:30:21;;;;;;;68.1;59.3;;;;;;;23.3;39.14063;980.421;;;;
2019/11/25 18:32:46;;;;;;;69.8;60.8;;;;;;;23.3;39.17188;980.4547;;;;
2019/11/25 18:35:11;;;;;;;70.2;59.9;;;;;;;23.3;39.17188;980.4238;;;;
2019/11/25 18:37:36;;;;;;;69.3;58.6;;;;;;;23.27;39.18066;980.4111;;;;
2019/11/25 18:40:06;;;;;;;72.2;60.1;;;;;;;23.29;39.14063;980.4016;;;;
2019/11/25 18:42:31;;;;;;;69.8;60.3;;;;;;;23.29;39.12988;980.3861;;;;
2019/11/25 18:44:57;;;;;;;69.7;59.5;;;;;;;23.29;39.12891;980.4059;;;;
2019/11/25 18:47:23;;;;;;;69.6;58.7;;;;;;;23.29;39.08691;980.3978;;;;
2019/11/25 18:49:48;;;;;;;72.2;59.6;;;;;;;23.3;39.06641;980.3689;;;;
2019/11/25 18:52:15;;;;;;;69.8;59.4;;;;;;;23.29;39.08691;980.3989;;;;
2019/11/25 18:54:41;;;;;;;71.4;60.7;;;;;;;23.3;39.05664;980.4065;;;;
2019/11/25 18:57:09;;;;;;;69.7;59;;;;;;;23.3;39.05664;980.3611;;;;
2019/11/25 18:59:34;;;;;;;71.6;59.8;;;;;;;23.31;39.03613;980.3473;;;;
2019/11/25 19:03:27;;;;;;;96.4;62.7;;;;;;;23.2;39.4707;980.3762;;;;
2019/11/25 19:05:52;;;;;;;93.2;62.2;;;;;;;23.1;39.78027;980.4178;;;;
2019/11/25 19:10:50;;;;;;;99.5;64;;;;;;;23.01;39.89941;980.4266;;;;
2019/11/25 19:13:09;;;;;;;101.3;64.5;;;;;;;22.97;39.93848;980.4835;;;;
2019/11/25 19:15:34;;;;;;;103.2;64.5;;;;;;;22.95;39.97949;980.4631;;;;
2019/11/25 19:17:59;;;;;;;98.9;63.1;;;;;;;22.94;39.95801;980.4702;;;;
2019/11/25 19:20:25;;;;;;;99.1;63.6;;;;;;;22.95;39.93652;980.5162;;;;
2019/11/25 19:22:50;;;;;;;100.9;64.4;;;;;;;22.95;39.92578;980.572;;;;
2019/11/25 19:25:15;;;;;;;99.8;64.5;;;;;;;22.94;39.95703;980.6;;;;
2019/11/25 19:27:40;;;;;;;99.5;63.7;;;;;;;22.93;39.95605;980.5947;;;;
2019/11/25 19:30:05;;;;;;;99;63.4;;;;;;;22.94;39.91504;980.5657;;;;
2019/11/25 19:32:30;;;;;;;99.4;64.1;;;;;;;22.92;39.94531;980.553;;;;
2019/11/25 19:34:55;;;;;;;99.9;64.8;;;;;;;22.92;39.94434;980.5517;;;;
2019/11/25 19:37:20;;;;;;;98.9;63.5;;;;;;;22.92;39.92383;980.5339;;;;
2019/11/25 19:39:45;;;;;;;100.3;64.2;;;;;;;22.92;39.9248;980.543;;;;
2019/11/25 19:42:11;;;;;;;97.8;63.2;;;;;;;22.92;39.93359;980.5876;;;;
2019/11/25 19:44:36;;;;;;;99.8;64.1;;;;;;;22.91;39.92285;980.5931;;;;
2019/11/25 19:47:01;;;;;;;100.3;64.9;;;;;;;22.91;39.90137;980.6069;;;;
2019/11/25 19:49:26;;;;;;;101.3;65.1;;;;;;;22.9;39.88965;980.5642;;;;
2019/11/25 19:51:51;;;;;;;101.2;64.2;;;;;;;22.92;39.91406;980.5884;;;;
2019/11/25 19:54:16;;;;;;;101.3;64.7;;;;;;;22.91;39.90137;980.5662;;;;
2019/11/25 19:56:41;;;;;;;101.9;64.6;;;;;;;22.91;39.89063;980.5455;;;;
2019/11/25 19:59:06;;;;;;;100.4;64.4;;;;;;;22.91;39.89063;980.575;;;;
2019/11/25 20:01:31;;;;;;;99;64.1;;;;;;;22.91;39.92285;980.5566;;;;
2019/11/25 20:03:56;;;;;;;100.5;64.9;;;;;;;22.9;39.87891;980.5283;;;;
2019/11/25 20:06:22;;;;;;;98.8;64.5;;;;;;;22.92;39.87012;980.4919;;;;
2019/11/25 20:08:47;;;;;;;100.5;64.4;;;;;;;22.9;39.83691;980.4634;;;;
2019/11/25 20:14:34;;;;;;;63.2;54.4;;;;;;;23.92;41.11719;980.4169;;;;
2019/11/25 20:16:59;;;;;;;61;54.6;;;;;;;23.11;42.35742;980.4285;;;;
2019/11/25 20:19:25;;;;;;;61.6;55;;;;;;;22.88;42.26074;980.4835;;;;
2019/11/25 20:21:50;;;;;;;67.4;54.7;;;;;;;22.88;42.99121;980.5097;;;;
2019/11/25 20:24:15;;;;;;;61.3;54.3;;;;;;;22.87;43.55078;980.5366;;;;
2019/11/25 20:26:40;;;;;;;61.3;54.6;;;;;;;22.81;43.69336;980.5066;;;;
2019/11/25 20:30:37;;;;;;;85.3;62.2;;;;;;;23.29;41.13379;980.3703;;;;
2019/11/25 20:37:32;;;;;;;80.2;72.3;;;;;;;22.99;40.05664;980.5165;;;;
2019/11/25 20:39:58;;;;;;;67.3;60.2;;;;;;;22.99;40.06738;980.4735;;;;
2019/11/25 20:42:54;;;;;;;93.4;85.1;;;;;;;23.02;40.07129;980.4182;;;;
2019/11/25 20:45:21;;;;;;;72.8;65.4;;;;;;;23.08;40.08691;980.4099;;;;
2019/11/25 20:47:47;;;;;;;102.7;93.8;;;;;;;22.99;40.03516;980.2174;;;;
2019/11/25 20:50:17;;;;;;;66;59;;;;;;;23.17;40.01953;980.4692;;;;
2019/11/25 20:54:52;;;;;;;66.9;57.3;;;;;;;23.28;42.9668;980.4961;;;;
2019/11/25 20:57:17;;;;;;;75.5;59.9;;;;;;;23.15;42.88965;980.4883;;;;
2019/11/25 20:59:42;;;;;;;83.4;59.2;;;;;;;23.21;42.90625;980.4864;;;;
2019/11/25 21:02:07;;;;;;;94.3;59.5;;;;;;;23.16;42.6377;980.551;;;;
2019/11/25 21:04:32;;;;;;;84.4;59.3;;;;;;;22.99;43.25586;980.5491;;;;
2019/11/25 21:07:00;;;;;;;79.5;59;;;;;;;22.89;43.07715;980.5117;;;;
2019/11/25 21:09:26;;;;;;;77.4;58;;;;;;;22.83;42.92383;980.4701;;;;
2019/11/25 21:11:50;;;;;;;84.8;58.8;;;;;;;22.82;43.05957;980.5122;;;;
2019/11/25 21:14:15;;;;;;;80.5;58.2;;;;;;;22.82;43.42969;980.5045;;;;
2019/11/25 21:16:40;;;;;;;75.8;57.9;;;;;;;22.81;43.30176;980.4572;;;;
2019/11/25 21:19:08;;;;;;;74.8;58.2;;;;;;;22.78;43.09766;980.4581;;;;
2019/11/25 21:21:33;;;;;;;75.6;58.8;;;;;;;22.76;43.36035;980.4719;;;;
2019/11/25 21:23:59;;;;;;;72.9;58.3;;;;;;;22.74;43.23145;980.4667;;;;
2019/11/25 21:26:26;;;;;;;73.3;58.6;;;;;;;22.74;43.31641;980.4869;;;;
2019/11/25 21:28:56;;;;;;;74.1;58.6;;;;;;;22.72;43.27246;980.5273;;;;
2019/11/25 21:31:21;;;;;;;76.4;59.7;;;;;;;22.72;43.1875;980.525;;;;
2019/11/25 21:33:50;;;;;;;72.6;57.9;;;;;;;22.72;43.1875;980.5519;;;;
2019/11/25 21:36:20;;;;;;;72;58.5;;;;;;;22.71;43.11328;980.5311;;;;
2019/11/25 21:38:46;;;;;;;74.8;59;;;;;;;22.72;43.14551;980.5115;;;;
2019/11/25 21:41:21;;;;;;;73.8;58.2;;;;;;;22.67;43.18262;980.4719;;;;
2019/11/25 21:46:16;;;;;;;74.5;59.7;;;;;;;22.7;42.88965;980.4448;;;;
2019/11/25 21:48:34;;;;;;;70.1;58.5;;;;;;;22.68;42.89844;980.4111;;;;
2019/11/25 21:50:59;;;;;;;71.7;58.4;;;;;;;22.68;42.98242;980.4773;;;;
2019/11/25 21:53:24;;;;;;;74.5;58.9;;;;;;;22.68;42.85547;980.5212;;;;
2019/11/25 21:55:49;;;;;;;74.8;58.7;;;;;;;22.69;42.88867;980.5252;;;;
2019/11/25 21:58:15;;;;;;;73.3;58.7;;;;;;;22.68;42.82422;980.5598;;;;
2019/11/25 22:00:43;;;;;;;73.2;58.7;;;;;;;22.67;42.73828;980.5328;;;;
2019/11/25 22:03:08;;;;;;;72.9;58.6;;;;;;;22.66;42.71582;980.567;;;;
2019/11/25 22:05:38;;;;;;;70.1;58.2;;;;;;;22.67;42.74902;980.6074;;;;
2019/11/25 22:08:07;;;;;;;71.6;58.3;;;;;;;22.67;42.55762;980.5539;;;;
2019/11/25 22:10:32;;;;;;;71.8;58.4;;;;;;;22.66;42.67383;980.4989;;;;
2019/11/25 22:13:03;;;;;;;71.1;58.7;;;;;;;22.64;42.58789;980.4623;;;;
2019/11/25 22:15:29;;;;;;;71;58.7;;;;;;;22.65;42.5459;980.5103;;;;
2019/11/25 22:17:54;;;;;;;70.4;58.2;;;;;;;22.63;42.55469;980.5672;;;;
2019/11/25 22:20:19;;;;;;;71.5;58.2;;;;;;;22.64;42.58789;980.6317;;;;
2019/11/25 22:22:44;;;;;;;71.5;58.6;;;;;;;22.63;42.59668;980.5773;;;;
2019/11/25 22:25:09;;;;;;;71.9;58.5;;;;;;;22.63;42.55469;980.6304;;;;
2019/11/25 22:27:34;;;;;;;74;59.5;;;;;;;22.63;42.5332;980.6337;;;;
2019/11/25 22:29:59;;;;;;;71.5;58.6;;;;;;;22.62;42.56445;980.7084;;;;
2019/11/25 22:32:24;;;;;;;72.6;59.3;;;;;;;22.61;42.51074;980.7088;;;;
2019/11/25 22:34:51;;;;;;;69.7;58.5;;;;;;;22.6;42.4248;980.6397;;;;
2019/11/25 22:37:16;;;;;;;71.5;59.1;;;;;;;22.6;42.39258;980.6367;;;;
2019/11/25 22:39:41;;;;;;;71.4;58.9;;;;;;;22.6;42.4668;980.6161;;;;
2019/11/25 22:42:06;;;;;;;70.9;58.9;;;;;;;22.62;42.39551;980.6127;;;;
2019/11/25 22:44:32;;;;;;;71.4;59.2;;;;;;;22.61;42.46777;980.5751;;;;
2019/11/25 22:47:28;;;;;;;70.7;59.5;;;;;;;22.62;42.28906;980.6227;;;;
2019/11/25 22:49:53;;;;;;;70.3;58.7;;;;;;;22.6;42.38281;980.6414;;;;
2019/11/25 22:53:35;;;;;;;72.3;59.3;;;;;;;22.59;42.38184;980.5941;;;;
2019/11/25 22:56:00;;;;;;;72.1;58.9;;;;;;;22.6;42.29688;980.5527;;;;
2019/11/25 22:58:25;;;;;;;71.8;59;;;;;;;22.6;42.20215;980.5393;;;;
2019/11/25 23:03:15;;;;;;;72;59;;;;;;;22.59;42.12793;980.4399;;;;
2019/11/25 23:05:40;;;;;;;70.6;58.8;;;;;;;22.59;42.05371;980.407;;;;
2019/11/25 23:08:05;;;;;;;74;59.4;;;;;;;22.6;42.20215;980.42;;;;
2019/11/25 23:10:30;;;;;;;73;58.5;;;;;;;22.6;42.14844;980.3619;;;;
2019/11/25 23:12:56;;;;;;;71.6;58.6;;;;;;;22.58;42.04199;980.3328;;;;
2019/11/25 23:15:21;;;;;;;71.7;58.8;;;;;;;22.57;42.11523;980.2399;;;;
2019/11/25 23:17:46;;;;;;;73.7;59.4;;;;;;;22.58;42.10449;980.2335;;;;
2019/11/25 23:20:12;;;;;;;72.7;59.4;;;;;;;22.58;42.17969;980.2045;;;;
2019/11/25 23:22:37;;;;;;;73.2;59.4;;;;;;;22.57;42.12598;980.1724;;;;
2019/11/25 23:25:02;;;;;;;71.6;58.9;;;;;;;22.57;42.01953;980.1928;;;;
2019/11/25 23:27:27;;;;;;;71.9;59.3;;;;;;;22.58;41.94629;980.1443;;;;
2019/11/25 23:29:52;;;;;;;71.4;59;;;;;;;22.58;41.98828;980.1075;;;;
2019/11/25 23:32:18;;;;;;;71.2;59.1;;;;;;;22.57;41.86035;980.1233;;;;
2019/11/25 23:34:43;;;;;;;71.4;59.2;;;;;;;22.58;41.92578;980.2414;;;;
2019/11/25 23:37:21;;;;;;;72.6;59.2;;;;;;;22.56;42.01855;980.2063;;;;
2019/11/25 23:39:46;;;;;;;72.6;59.8;;;;;;;22.56;42.01855;980.1661;;;;
2019/11/25 23:42:12;;;;;;;71.1;59.2;;;;;;;22.55;41.84766;980.1953;;;;
2019/11/25 23:44:37;;;;;;;73.1;59;;;;;;;22.56;41.95605;980.1724;;;;
2019/11/25 23:47:06;;;;;;;72.6;58.3;;;;;;;22.57;41.95605;980.2291;;;;
2019/11/25 23:49:31;;;;;;;73.1;58.4;;;;;;;22.57;41.80762;980.2173;;;;
2019/11/25 23:51:57;;;;;;;72.2;59.3;;;;;;;22.57;41.78711;980.2449;;;;
2019/11/25 23:54:22;;;;;;;72.9;59.3;;;;;;;22.56;41.83887;980.2436;;;;
2019/11/25 23:56:47;;;;;;;74.1;59.4;;;;;;;22.57;41.69238;980.2932;;;;
2019/11/25 23:59:14;;;;;;;71.1;58.7;;;;;;;22.56;41.69043;980.301;;;;
